createdAt,value
2023-04-15T00:01:27.030Z,1.60
2023-04-15T00:06:29.331Z,1.50
2023-04-15T00:11:31.871Z,2.40
2023-04-15T00:16:34.347Z,1.77
2023-04-15T00:21:37.189Z,1.83
2023-04-15T00:26:39.721Z,1.27
2023-04-15T00:31:42.514Z,1.30
2023-04-15T00:36:45.103Z,1.20
2023-04-15T00:41:47.632Z,1.63
2023-04-15T00:46:52.185Z,1.43
2023-04-15T00:51:54.420Z,1.20
2023-04-15T00:56:56.878Z,1.20
2023-04-15T01:01:59.106Z,1.13
2023-04-15T01:07:01.507Z,1.20
2023-04-15T01:12:04.185Z,1.17
2023-04-15T01:17:06.608Z,1.10
2023-04-15T01:22:09.252Z,1.20
2023-04-15T01:27:14.048Z,1.30
2023-04-15T01:32:16.647Z,1.17
2023-04-15T01:37:19.574Z,1.40
2023-04-15T01:42:25.153Z,1.20
2023-04-15T01:47:27.320Z,0.90
2023-04-15T01:52:29.597Z,1.03
2023-04-15T01:57:32.489Z,1.10
2023-04-15T02:02:34.973Z,1.10
2023-04-15T02:07:37.909Z,1.27
2023-04-15T02:12:40.711Z,1.40
2023-04-15T02:17:46.094Z,1.20
2023-04-15T02:22:50.910Z,1.10
2023-04-15T02:27:53.475Z,1.70
2023-04-15T02:32:56.137Z,1.17
2023-04-15T02:38:01.167Z,1.40
2023-04-15T02:43:05.503Z,1.10
2023-04-15T02:48:08.244Z,1.23
2023-04-15T02:53:11.911Z,0.87
2023-04-15T02:58:14.627Z,1.50
2023-04-15T03:03:17.103Z,0.93
2023-04-15T03:08:19.719Z,1.30
2023-04-15T03:13:21.845Z,1.30
2023-04-15T03:18:24.291Z,1.10
2023-04-15T03:23:26.732Z,1.33
2023-04-15T03:28:30.575Z,1.37
2023-04-15T03:33:35.289Z,1.50
2023-04-15T03:38:37.445Z,1.50
2023-04-15T03:43:39.689Z,1.50
2023-04-15T03:48:41.801Z,1.40
2023-04-15T03:53:44.036Z,1.37
2023-04-15T03:58:46.272Z,1.83
2023-04-15T04:03:48.677Z,1.20
2023-04-15T04:08:51.078Z,1.97
2023-04-15T04:13:53.159Z,1.33
2023-04-15T04:18:55.400Z,1.53
2023-04-15T04:23:57.678Z,1.23
2023-04-15T04:29:00.174Z,1.93
2023-04-15T04:34:02.421Z,1.77
2023-04-15T04:39:04.702Z,2.33
2023-04-15T04:44:07.040Z,3.03
2023-04-15T04:49:09.122Z,2.17
2023-04-15T04:54:11.827Z,2.30
2023-04-15T04:59:14.204Z,3.10
2023-04-15T05:04:16.407Z,2.60
2023-04-15T05:09:19.090Z,3.13
2023-04-15T05:14:22.937Z,2.70
2023-04-15T05:19:25.731Z,2.40
2023-04-15T05:24:27.990Z,2.60
2023-04-15T05:29:30.791Z,2.30
2023-04-15T05:34:32.959Z,2.00
2023-04-15T05:39:35.275Z,2.43
2023-04-15T05:44:37.381Z,2.30
2023-04-15T05:49:39.626Z,2.00
2023-04-15T05:54:41.749Z,2.20
2023-04-15T05:59:44.936Z,2.20
2023-04-15T06:04:47.410Z,2.53
2023-04-15T06:09:49.692Z,2.53
2023-04-15T06:14:51.958Z,2.77
2023-04-15T06:19:55.965Z,2.57
2023-04-15T06:24:58.222Z,2.10
2023-04-15T06:30:00.495Z,1.90
2023-04-15T06:35:02.706Z,2.67
2023-04-15T06:40:05.831Z,2.10
2023-04-15T06:45:30.004Z,2.07
2023-04-15T06:50:32.612Z,2.00
2023-04-15T06:55:34.779Z,2.33
2023-04-15T07:00:38.977Z,3.43
2023-04-15T07:05:41.718Z,2.47
2023-04-15T07:10:44.916Z,3.30
2023-04-15T07:15:47.019Z,3.23
2023-04-15T07:20:49.150Z,2.90
2023-04-15T07:25:52.185Z,2.97
2023-04-15T07:30:54.872Z,3.23
2023-04-15T07:35:57.318Z,2.93
2023-04-15T07:40:59.825Z,2.20
2023-04-15T07:46:01.999Z,2.10
2023-04-15T07:51:04.285Z,2.47
2023-04-15T07:56:06.914Z,2.57
2023-04-15T08:01:09.202Z,2.57
2023-04-15T08:06:11.587Z,2.10
2023-04-15T08:11:13.980Z,2.40
2023-04-15T08:16:25.273Z,2.73
2023-04-15T08:21:27.936Z,2.30
2023-04-15T08:26:30.224Z,2.30
2023-04-15T08:31:32.463Z,2.90
2023-04-15T08:36:34.891Z,1.97
2023-04-15T08:41:49.700Z,2.30
2023-04-15T08:46:52.928Z,1.60
2023-04-15T08:51:58.791Z,2.40
2023-04-15T08:57:02.482Z,1.90
2023-04-15T09:02:04.829Z,2.50
2023-04-15T09:07:07.423Z,18.67
2023-04-15T09:12:11.511Z,1.80
2023-04-15T09:17:13.975Z,2.07
2023-04-15T09:22:16.598Z,2.60
2023-04-15T09:27:18.795Z,3.40
2023-04-15T09:32:24.866Z,2.70
2023-04-15T09:37:36.827Z,4.50
2023-04-15T09:42:56.201Z,3.73
2023-04-15T09:48:00.691Z,3.77
2023-04-15T09:53:04.283Z,3.47
2023-04-15T09:58:19.371Z,3.30
2023-04-15T10:03:53.182Z,3.43
2023-04-15T10:09:01.494Z,2.90
2023-04-15T10:14:04.781Z,3.37
2023-04-15T10:19:09.563Z,2.37
2023-04-15T10:24:12.397Z,3.47
2023-04-15T10:29:14.816Z,2.90
2023-04-15T10:34:18.353Z,3.33
2023-04-15T10:39:43.529Z,2.30
2023-04-15T10:44:52.328Z,2.30
2023-04-15T10:50:02.656Z,2.33
2023-04-15T10:55:16.657Z,2.90
2023-04-15T11:00:21.844Z,2.10
2023-04-15T11:05:53.147Z,2.90
2023-04-15T11:10:55.458Z,2.40
2023-04-15T11:15:59.139Z,2.30
2023-04-15T11:21:05.385Z,2.40
2023-04-15T11:26:12.062Z,2.40
2023-04-15T11:31:18.109Z,2.50
2023-04-15T11:36:20.838Z,2.07
2023-04-15T11:41:26.257Z,2.20
2023-04-15T11:46:32.425Z,2.40
2023-04-15T11:51:35.695Z,3.10
2023-04-15T11:56:37.876Z,2.23
2023-04-15T12:01:42.288Z,2.40
2023-04-15T12:06:44.969Z,2.90
2023-04-15T12:11:49.017Z,2.93
2023-04-15T12:16:54.526Z,3.00
2023-04-15T12:22:04.554Z,4.13
2023-04-15T12:27:17.924Z,2.80
2023-04-15T12:32:21.165Z,2.03
2023-04-15T12:37:23.545Z,2.43
2023-04-15T12:42:25.909Z,2.67
2023-04-15T12:47:28.191Z,2.40
2023-04-15T12:52:30.486Z,2.20
2023-04-15T12:57:33.122Z,2.27
2023-04-15T13:02:35.449Z,1.90
2023-04-15T13:07:37.712Z,1.60
2023-04-15T13:12:39.912Z,2.23
2023-04-15T13:17:42.144Z,2.50
2023-04-15T13:22:44.461Z,1.80
2023-04-15T13:27:47.374Z,1.50
2023-04-15T13:32:51.314Z,1.43
2023-04-15T13:37:55.806Z,2.03
2023-04-15T13:42:58.708Z,2.10
2023-04-15T13:48:01.388Z,2.20
2023-04-15T13:53:03.596Z,1.80
2023-04-15T13:58:06.230Z,1.80
2023-04-15T14:03:08.434Z,1.70
2023-04-15T14:08:10.972Z,1.40
2023-04-15T14:13:13.181Z,1.60
2023-04-15T14:18:15.552Z,1.50
2023-04-15T14:23:17.789Z,1.33
2023-04-15T14:28:20.002Z,1.50
2023-04-15T14:33:22.105Z,1.60
2023-04-15T14:38:24.506Z,1.40
2023-04-15T14:43:26.729Z,1.50
2023-04-15T14:48:29.350Z,1.27
2023-04-15T14:53:31.713Z,2.03
2023-04-15T14:58:33.985Z,1.30
2023-04-15T15:03:36.507Z,1.50
2023-04-15T15:08:38.770Z,1.40
2023-04-15T15:13:40.866Z,1.03
2023-04-15T15:18:43.153Z,1.60
2023-04-15T15:23:46.019Z,1.50
2023-04-15T15:28:50.510Z,1.37
2023-04-15T15:33:53.206Z,1.47
2023-04-15T15:38:55.657Z,1.53
2023-04-15T15:43:57.761Z,1.40
2023-04-15T15:49:00.037Z,1.77
2023-04-15T15:54:02.127Z,1.57
2023-04-15T15:59:04.995Z,1.67
2023-04-15T16:04:07.652Z,2.63
2023-04-15T16:09:10.090Z,1.60
2023-04-15T16:14:13.959Z,1.57
2023-04-15T16:19:16.460Z,1.90
2023-04-15T16:24:18.692Z,1.30
2023-04-15T16:29:20.785Z,1.33
2023-04-15T16:34:22.950Z,1.47
2023-04-15T16:39:25.254Z,1.90
2023-04-15T16:44:27.640Z,1.90
2023-04-15T16:49:30.387Z,1.60
2023-04-15T16:54:34.883Z,1.77
2023-04-15T16:59:38.310Z,1.60
2023-04-15T17:04:41.638Z,2.00
2023-04-15T17:09:43.967Z,1.63
2023-04-15T17:14:46.213Z,1.83
2023-04-15T17:19:48.571Z,2.27
2023-04-15T17:24:51.045Z,2.10
2023-04-15T17:29:53.228Z,1.40
2023-04-15T17:34:55.527Z,1.77
2023-04-15T17:39:57.773Z,1.50
2023-04-15T17:45:00.051Z,1.40
2023-04-15T17:50:02.327Z,1.70
2023-04-15T17:55:04.895Z,2.33
2023-04-15T18:00:08.950Z,1.80
2023-04-15T18:05:15.237Z,1.57
2023-04-15T18:10:17.716Z,1.60
2023-04-15T18:15:19.928Z,1.70
2023-04-15T18:20:22.319Z,2.10
2023-04-15T18:25:24.569Z,2.07
2023-04-15T18:30:26.801Z,1.60
2023-04-15T18:35:30.082Z,1.63
2023-04-15T18:40:32.975Z,1.50
2023-04-15T18:45:37.152Z,1.63
2023-04-15T18:50:39.404Z,1.73
2023-04-15T18:55:41.706Z,1.23
2023-04-15T19:00:43.977Z,1.43
2023-04-15T19:05:46.458Z,1.50
2023-04-15T19:10:48.651Z,1.40
2023-04-15T19:15:50.740Z,1.57
2023-04-15T19:20:55.817Z,1.60
2023-04-15T19:25:58.710Z,1.47
2023-04-15T19:31:00.913Z,1.30
2023-04-15T19:36:06.778Z,1.27
2023-04-15T19:41:10.361Z,1.43
2023-04-15T19:46:13.480Z,1.80
2023-04-15T19:51:15.975Z,1.60
2023-04-15T19:56:18.336Z,1.60
2023-04-15T20:01:21.445Z,1.53
2023-04-15T20:06:23.830Z,2.00
2023-04-15T20:12:47.476Z,1.77
2023-04-15T20:16:51.784Z,1.73
2023-04-15T20:21:54.489Z,1.90
2023-04-15T20:26:57.671Z,1.60
2023-04-15T20:31:59.908Z,1.63
2023-04-15T20:37:02.425Z,2.13
2023-04-15T20:42:10.846Z,1.97
2023-04-15T20:47:13.363Z,2.00
2023-04-15T20:52:15.807Z,2.13
2023-04-15T20:57:18.059Z,2.40
2023-04-15T21:02:20.308Z,2.17
2023-04-15T21:07:22.645Z,2.10
2023-04-15T21:12:24.766Z,2.37
2023-04-15T21:17:27.117Z,1.90
2023-04-15T21:22:29.325Z,2.43
2023-04-15T21:27:31.567Z,2.23
2023-04-15T21:32:33.909Z,1.87
2023-04-15T21:37:37.671Z,5.10
2023-04-15T21:42:39.942Z,6.00
2023-04-15T21:48:06.776Z,4.83
2023-04-15T21:53:07.997Z,18.20
2023-04-15T21:58:10.255Z,5.17
2023-04-15T22:03:12.500Z,3.60
2023-04-15T22:08:14.697Z,4.70
2023-04-15T22:13:16.881Z,4.80
2023-04-15T22:18:19.021Z,4.90
2023-04-15T22:23:21.161Z,5.70
2023-04-15T22:28:23.382Z,4.93
2023-04-15T22:33:25.487Z,5.17
2023-04-15T22:38:27.580Z,5.57
2023-04-15T22:43:29.792Z,5.80
2023-04-15T22:48:32.017Z,6.80
2023-04-15T22:53:34.242Z,7.67
2023-04-15T22:58:36.357Z,7.13
2023-04-15T23:03:53.709Z,8.83
2023-04-15T23:08:59.583Z,9.60
2023-04-15T23:14:02.345Z,9.90
2023-04-15T23:19:04.459Z,7.83
2023-04-15T23:24:07.064Z,8.67
2023-04-15T23:29:10.546Z,9.10
2023-04-15T23:34:12.787Z,11.00
2023-04-15T23:39:14.875Z,9.20
2023-04-15T23:44:16.977Z,9.00
2023-04-15T23:49:20.324Z,10.40
2023-04-15T23:54:22.839Z,10.27
2023-04-15T23:59:25.353Z,10.13
